Latest Weather Observations for Ulladulla

IDN60901

Issued at 3:05 pm EST Wednesday 30 July 2014 (issued every 10 minutes, with the page automatically refreshed every 10 minutes)

About weather observations | Map of Canberra area stations | Latest observations for Canberra area | Other Formats
Station Details ID: 069138 Name: ULLADULLA AWS Lat: -35.36 Lon: 150.48 Height: 35.7 m
Data from the previous 72 hours. | See also: Recent months at Ulladulla
Date/Time
EST
Tmp

°C
App
Tmp
°C
Dew
Point
°C
Rel
Hum
%
Delta-T

°C
Wind Press
QNH
hPa
Press
MSL
hPa
Rain
since
9 am
mm
Dir
 
Spd
km/h
Gust
km/h
Spd
kts
Gust
kts
30/03:00pm 19.4 14.2 7.2 45 6.2 WNW 24 43 13 23 1012.9 1012.9 0.0
30/02:30pm 19.5 15.6 7.3 45 6.2 WNW 17 32 9 17 1013.0 - 0.0
30/02:00pm 19.8 15.4 7.5 45 6.3 WNW 20 48 11 26 1013.0 1013.0 0.0
30/01:54pm 19.6 13.7 7.4 45 6.2 WNW 28 48 15 26 1013.0 - 0.0
30/01:53pm 19.5 12.7 6.9 44 6.4 WNW 32 48 17 26 1013.0 - 0.0
30/01:30pm 19.6 16.3 8.0 47 6.0 WNW 15 28 8 15 1013.3 - 0.0
30/01:00pm 20.2 16.4 7.6 44 6.5 WNW 17 37 9 20 1013.5 1013.5 0.0
30/12:30pm 20.7 16.9 7.7 43 6.7 NW 17 35 9 19 1013.8 - 0.0
30/12:00pm 20.9 17.9 7.9 43 6.7 WNW 13 26 7 14 1013.9 1013.9 0.0
30/11:30am 20.6 18.5 8.3 45 6.4 NW 9 17 5 9 1014.6 - 0.0
30/11:00am 20.0 17.5 8.4 47 6.0 WNW 11 32 6 17 1015.2 1015.2 0.0
30/10:30am 19.1 14.6 8.4 50 5.5 NW 22 35 12 19 1015.5 - 0.0
30/10:00am 19.0 15.4 8.4 50 5.5 NW 17 26 9 14 1015.8 1015.8 0.0
30/09:30am 18.5 15.2 8.2 51 5.3 WNW 15 33 8 18 1015.9 - 0.0
30/09:00am 18.0 15.4 7.7 51 5.2 W 11 24 6 13 1015.8 1015.8 0.0
30/08:30am 17.5 14.1 7.8 53 4.9 NW 15 28 8 15 1015.6 - 0.0
30/08:00am 16.6 15.8 8.1 57 4.3 NNW 2 6 1 3 1015.2 1015.2 0.0
30/07:30am 15.6 14.2 7.4 58 4.1 N 4 6 2 3 1015.3 - 0.0
30/07:00am 15.1 13.5 6.4 56 4.2 WNW 4 7 2 4 1014.9 1014.9 0.0
30/06:30am 15.8 12.9 6.5 54 4.5 WNW 11 19 6 10 1014.5 - 0.0
30/06:00am 16.4 12.4 6.5 52 4.9 WNW 17 30 9 16 1014.1 1014.1 0.0
30/05:30am 16.4 13.1 6.2 51 5.0 WNW 13 26 7 14 1013.6 - 0.0
30/05:00am 16.5 11.8 6.1 50 5.1 WNW 20 33 11 18 1013.0 1013.0 0.0
30/04:30am 16.9 12.7 5.8 48 5.4 WNW 17 35 9 19 1012.8 - 0.0
30/04:00am 17.1 13.3 6.0 48 5.4 WNW 15 32 8 17 1012.7 1012.7 0.0
30/03:30am 17.0 14.8 5.3 46 5.6 WSW 6 11 3 6 1012.7 - 0.0
30/03:00am 17.4 13.0 5.0 44 5.9 NW 17 44 9 24 1012.0 1012.0 0.0
30/02:30am 17.5 13.4 4.5 42 6.2 WNW 15 28 8 15 1012.2 - 0.0
30/02:00am 17.0 13.2 4.0 42 6.1 WNW 13 24 7 13 1012.3 1012.3 0.0
30/01:30am 16.9 12.7 3.6 41 6.2 WNW 15 28 8 15 1012.8 - 0.0
30/01:00am 17.2 13.3 3.5 40 6.4 WNW 13 20 7 11 1013.1 1013.1 0.0
30/12:30am 17.8 14.1 2.5 36 7.0 WSW 11 26 6 14 1013.1 - 0.0
30/12:00am 18.3 13.5 2.6 35 7.2 WNW 17 32 9 17 1012.7 1012.7 0.0
 
Date/Time
EST
Tmp

°C
App
Tmp
°C
Dew
Point
°C
Rel
Hum
%
Delta-T

°C
Wind Press
QNH
hPa
Press
MSL
hPa
Rain
since
9 am
mm
Dir
 
Spd
km/h
Gust
km/h
Spd
kts
Gust
kts
29/11:30pm 17.9 14.3 3.0 37 6.9 WNW 11 24 6 13 1012.8 - 0.0
29/11:00pm 17.7 14.7 3.9 40 6.5 W 9 20 5 11 1012.9 1012.9 0.0
29/10:30pm 17.5 14.5 4.1 41 6.3 W 9 17 5 9 1013.1 - 0.0
29/10:00pm 17.8 13.7 4.4 41 6.4 W 15 35 8 19 1012.9 1012.9 0.0
29/09:30pm 17.5 14.2 4.5 42 6.2 W 11 26 6 14 1012.9 - 0.0
29/09:00pm 17.8 14.9 4.4 41 6.4 W 9 30 5 16 1012.4 1012.4 0.0
29/08:30pm 17.9 13.8 4.1 40 6.5 WNW 15 28 8 15 1012.5 - 0.0
29/08:00pm 17.7 15.5 3.6 39 6.6 N 4 15 2 8 1012.6 1012.6 0.0
29/07:30pm 17.7 15.2 3.6 39 6.6 WNW 6 19 3 10 1012.5 - 0.0
29/07:00pm 17.6 14.8 3.1 38 6.7 NNW 7 17 4 9 1012.5 1012.5 0.0
29/06:30pm 18.0 14.4 2.7 36 7.0 NW 11 26 6 14 1012.3 - 0.0
29/06:00pm 18.1 15.9 3.2 37 6.9 NNE 4 9 2 5 1012.0 1012.0 0.0
29/05:30pm 18.5 15.3 2.8 35 7.3 NW 9 15 5 8 1011.8 - 0.0
29/05:00pm 18.8 16.8 2.2 33 7.6 WNW 2 9 1 5 1011.2 1011.2 0.0
29/04:30pm 20.4 15.1 1.8 29 8.6 NW 19 44 10 24 1010.8 - 0.0
29/04:00pm 21.0 16.1 2.3 29 8.7 WNW 17 33 9 18 1010.8 1010.8 0.0
29/03:30pm 21.2 16.0 2.5 29 8.8 NW 19 35 10 19 1010.9 - 0.0
29/03:00pm 21.8 17.7 2.5 28 9.1 NW 13 32 7 17 1011.3 1011.3 0.0
29/02:30pm 22.3 19.4 2.4 27 9.4 WNW 7 17 4 9 1011.0 - 0.0
29/02:00pm 22.1 17.4 1.2 25 9.6 WNW 15 28 8 15 1010.4 1010.4 0.0
29/01:30pm 22.1 16.8 1.7 26 9.5 WNW 19 33 10 18 1010.6 - 0.0
29/01:00pm 22.0 16.8 2.7 28 9.2 WNW 19 39 10 21 1011.0 1011.0 0.0
29/12:30pm 22.1 17.3 2.8 28 9.2 WNW 17 32 9 17 1011.6 - 0.0
29/12:00pm 21.2 16.9 3.0 30 8.6 NW 15 28 8 15 1012.4 1012.4 0.0
29/11:30am 18.9 16.4 6.4 44 6.2 ENE 9 15 5 8 1014.0 - 0.0
29/11:00am 18.3 15.3 5.8 44 6.1 N 11 20 6 11 1013.6 1013.6 0.0
29/10:30am 17.7 14.3 3.9 40 6.5 N 11 19 6 10 1014.0 - 0.0
29/10:00am 16.6 12.8 5.9 49 5.2 N 15 26 8 14 1014.1 1014.1 0.0
29/09:30am 15.6 11.8 5.8 52 4.7 N 15 24 8 13 1014.6 - 0.0
29/09:00am 15.0 11.9 5.5 53 4.5 N 11 20 6 11 1015.0 1015.0 0.0
29/08:30am 14.5 11.4 5.6 55 4.2 NNW 11 19 6 10 1015.1 - 0.0
29/08:00am 14.3 10.3 5.1 54 4.3 N 15 22 8 12 1015.0 1015.0 0.0
29/07:30am 14.7 11.0 4.4 50 4.8 N 13 22 7 12 1015.2 - 0.0
29/07:00am 13.7 11.0 2.9 48 4.8 N 6 9 3 5 1015.4 1015.4 0.0
29/06:30am 14.3 11.5 3.2 47 5.0 N 7 15 4 8 1015.4 - 0.0
29/06:00am 14.9 10.8 2.1 42 5.7 NNW 13 19 7 10 1015.5 1015.5 0.0
29/05:30am 15.6 10.0 1.4 38 6.2 NW 20 35 11 19 1014.9 - 0.0
29/05:00am 15.4 9.8 1.5 39 6.1 NW 20 33 11 18 1014.6 1014.6 0.0
29/04:30am 15.6 9.4 2.1 40 6.0 NW 24 39 13 21 1014.3 - 0.0
29/04:00am 15.4 9.6 2.2 41 5.9 NW 22 35 12 19 1014.2 1014.2 0.0
29/03:30am 15.3 10.2 2.8 43 5.6 NW 19 35 10 19 1014.4 - 0.0
29/03:00am 15.4 10.6 2.6 42 5.7 NW 17 28 9 15 1014.6 1014.6 0.0
29/02:30am 15.0 11.8 2.9 44 5.4 WNW 9 17 5 9 1015.2 - 0.0
29/02:00am 14.8 11.5 2.7 44 5.4 NW 9 15 5 8 1015.1 1015.1 0.0
29/01:30am 14.3 11.7 3.2 47 5.0 WNW 6 11 3 6 1015.5 - 0.0
29/01:00am 14.5 11.8 3.6 48 5.0 WNW 7 17 4 9 1015.7 1015.7 0.0
29/12:30am 14.5 11.9 3.3 47 5.1 W 6 13 3 7 1016.2 - 0.0
29/12:00am 15.0 11.5 3.5 46 5.2 WNW 11 19 6 10 1016.3 1016.3 0.0
 
Date/Time
EST
Tmp

°C
App
Tmp
°C
Dew
Point
°C
Rel
Hum
%
Delta-T

°C
Wind Press
QNH
hPa
Press
MSL
hPa
Rain
since
9 am
mm
Dir
 
Spd
km/h
Gust
km/h
Spd
kts
Gust
kts
28/11:30pm 14.8 12.2 4.2 49 4.9 WNW 7 19 4 10 1016.4 - 0.0
28/11:00pm 14.7 12.9 5.2 53 4.5 NNW 4 11 2 6 1016.6 1016.6 0.0
28/10:30pm 14.8 12.4 5.1 52 4.6 WNW 7 13 4 7 1016.7 - 0.0
28/10:00pm 14.7 12.5 5.2 53 4.5 W 6 20 3 11 1016.9 1016.9 0.0
28/09:30pm 15.2 12.1 5.7 53 4.5 WNW 11 24 6 13 1016.8 - 0.0
28/09:00pm 15.3 12.1 5.0 50 4.8 W 11 22 6 12 1017.1 1017.1 0.0
28/08:30pm 15.6 11.9 4.6 48 5.2 WNW 13 28 7 15 1017.1 - 0.0
28/08:00pm 15.7 11.6 4.4 47 5.3 WNW 15 33 8 18 1017.0 1017.0 0.0
28/07:30pm 15.5 12.1 3.9 46 5.4 WNW 11 22 6 12 1017.3 - 0.0
28/07:00pm 15.5 12.0 3.6 45 5.4 WNW 11 19 6 10 1017.2 1017.2 0.0
28/06:30pm 15.8 12.3 3.3 43 5.7 WNW 11 20 6 11 1017.2 - 0.0
28/06:00pm 15.9 11.7 3.7 44 5.6 WNW 15 28 8 15 1016.9 1016.9 0.0
28/05:30pm 15.8 12.4 4.2 46 5.4 WNW 11 20 6 11 1016.6 - 0.0
28/05:00pm 16.1 13.2 4.5 46 5.4 WNW 9 20 5 11 1016.7 1016.7 0.0
28/04:30pm 16.6 12.1 4.3 44 5.8 WNW 17 22 9 12 1016.5 - 0.0
28/04:00pm 16.8 11.8 4.5 44 5.8 WNW 20 35 11 19 1016.3 1016.3 0.0
28/03:30pm 17.1 14.3 5.1 45 5.7 WNW 9 19 5 10 1016.3 - 0.0
28/03:00pm 17.5 14.8 5.4 45 5.8 W 9 22 5 12 1016.5 1016.5 0.0
28/02:30pm 18.0 14.0 4.9 42 6.3 W 15 32 8 17 1016.7 - 0.0
28/02:00pm 18.3 14.7 4.8 41 6.5 W 13 24 7 13 1016.7 1016.7 0.0
28/01:30pm 17.9 14.0 5.2 43 6.1 W 15 28 8 15 1016.8 - 0.0
28/01:00pm 18.0 14.8 4.9 42 6.3 W 11 24 6 13 1017.3 1017.3 0.0
28/12:30pm 17.0 13.2 4.0 42 6.1 WNW 13 20 7 11 1017.9 - 0.0
28/12:00pm 17.4 13.6 4.0 41 6.3 WNW 13 22 7 12 1018.4 1018.4 0.0
28/11:30am 18.1 14.7 3.9 39 6.7 W 11 20 6 11 1018.9 - 0.0
28/11:00am 17.0 14.0 4.0 42 6.1 WNW 9 15 5 8 1019.1 1019.1 0.0
28/10:30am 16.4 13.3 3.8 43 5.8 WNW 9 17 5 9 1019.2 - 0.0
28/10:00am 15.9 12.4 3.4 43 5.7 W 11 19 6 10 1019.4 1019.4 0.0
28/09:30am 15.2 11.2 3.0 44 5.5 W 13 24 7 13 1019.7 - 0.0
28/09:00am 14.1 10.1 3.0 47 5.0 W 13 26 7 14 1019.7 1019.7 0.0
28/08:30am 13.2 8.7 2.4 48 4.7 W 15 28 8 15 1019.6 - 0.0
28/08:00am 12.3 8.1 1.9 49 4.5 WNW 13 24 7 13 1019.5 1019.5 0.0
28/07:30am 11.5 7.7 2.0 52 4.1 WNW 11 20 6 11 1019.4 - 0.0
28/07:00am 10.7 6.9 2.0 55 3.7 WNW 11 15 6 8 1019.1 1019.1 0.0
28/06:30am 10.8 6.8 2.6 57 3.5 WNW 13 20 7 11 1019.3 - 0.0
28/06:00am 10.9 6.9 3.0 58 3.4 WNW 13 20 7 11 1019.1 1019.1 0.0
28/05:30am 10.9 7.0 3.5 60 3.3 WNW 13 20 7 11 1019.0 - 0.0
28/05:00am 10.7 7.2 3.7 62 3.1 WNW 11 20 6 11 1018.9 1018.9 0.0
28/04:30am 10.9 7.1 3.9 62 3.1 WNW 13 22 7 12 1019.3 - 0.0
28/04:00am 10.8 7.8 4.0 63 3.0 WNW 9 17 5 9 1019.1 1019.1 0.0
28/03:30am 11.2 7.8 4.0 61 3.2 NW 11 17 6 9 1018.7 - 0.0
28/03:00am 11.2 8.3 4.4 63 3.1 NW 9 15 5 8 1019.0 1019.0 0.0
28/02:30am 11.5 8.6 4.5 62 3.2 NW 9 15 5 8 1018.9 - 0.0
28/02:00am 11.4 8.5 4.6 63 3.1 WNW 9 17 5 9 1019.7 1019.7 0.0
28/01:30am 11.2 8.3 4.7 64 2.9 WNW 9 15 5 8 1019.7 - 0.0
28/01:00am 11.5 8.6 4.9 64 3.0 WNW 9 13 5 7 1019.9 1019.9 0.0
28/12:30am 11.4 9.2 5.1 65 2.9 WNW 6 11 3 6 1020.3 - 0.0
28/12:00am 11.7 9.3 5.1 64 3.0 NW 7 15 4 8 1020.5 1020.5 0.0
 
Date/Time
EST
Tmp

°C
App
Tmp
°C
Dew
Point
°C
Rel
Hum
%
Delta-T

°C
Wind Press
QNH
hPa
Press
MSL
hPa
Rain
since
9 am
mm
Dir
 
Spd
km/h
Gust
km/h
Spd
kts
Gust
kts
27/11:30pm 11.8 9.4 5.2 64 3.0 NW 7 13 4 7 1020.9 - 0.0
27/11:00pm 11.2 9.5 5.7 69 2.5 NW 4 13 2 7 1020.8 1020.8 0.0
27/10:30pm 11.0 9.9 5.1 67 2.7 CALM 0 4 0 2 1021.3 - 0.0
27/10:00pm 11.4 9.6 5.5 67 2.7 WNW 4 7 2 4 1021.3 1021.4 0.0
27/09:30pm 11.9 10.6 5.8 66 2.8 WNW 2 6 1 3 1020.7 - 0.0
27/09:00pm 12.4 10.1 5.6 63 3.2 NNW 7 9 4 5 1021.0 1021.1 0.0
27/08:30pm 12.8 10.5 5.7 62 3.3 WNW 7 11 4 6 1021.3 - 0.0
27/08:00pm 12.3 10.0 5.9 65 3.0 NW 7 11 4 6 1021.5 1021.6 0.0
27/07:30pm 11.9 10.1 5.5 65 3.0 WNW 4 6 2 3 1021.8 - 0.0
27/07:00pm 12.3 10.3 6.1 66 2.9 NNW 6 9 3 5 1022.0 1022.1 0.0
27/06:30pm 12.9 11.3 6.3 64 3.1 NNW 4 6 2 3 1022.0 - 0.0
27/06:00pm 14.1 12.7 7.2 63 3.4 NE 4 7 2 4 1021.6 1021.7 0.0
27/05:30pm 14.4 12.5 6.7 60 3.7 E 6 7 3 4 1021.4 - 0.0
27/05:00pm 14.4 13.0 5.7 56 4.1 ESE 2 4 1 2 1021.4 1021.5 0.0
27/04:30pm 16.0 14.7 6.2 52 4.8 ESE 2 6 1 3 1021.2 - 0.0
27/04:00pm 16.4 14.6 5.4 48 5.3 ESE 4 9 2 5 1020.9 1021.0 0.0
27/03:30pm 16.8 14.4 5.4 47 5.5 SE 7 11 4 6 1020.9 - 0.0

Latest Capital City Observations: Canberra | Sydney | Melbourne | Brisbane | Adelaide | Perth | Hobart | Darwin

Other Formats:

Comma delimited format used in spreadsheet applications
http://www.bom.gov.au/fwo/IDN60903/IDN60903.94938.axf

JavaScript Object Notation format (JSON) in row-major order
http://www.bom.gov.au/fwo/IDN60903/IDN60903.94938.json